Time;durP1;ratioP1;P1;durP2;ratioP2;P2;SDS_P1;SDS_P2;PMS_P1;PMS_P2;Temp;Humidity;BMP_temperature;BMP_pressure;BME280_temperature;BME280_humidity;BME280_pressure;Samples;Min_cycle;Max_cycle;Signal;HPM_P1;HPM_P2
2023/12/25 03:12:32;;;;;;;0.50;0.30;;;;;;;10.39;100.00;97433.96;258885;1297;7742511;-93
2023/12/25 03:18:39;;;;;;;1.70;0.30;;;;;;;10.41;100.00;97446.75;270101;1267;23103;-91
2023/12/25 03:24:41;;;;;;;1.10;0.40;;;;;;;10.42;100.00;97445.95;269903;1269;22626;-92
2023/12/25 03:30:47;;;;;;;0.50;0.30;;;;;;;10.40;100.00;97450.51;269944;1269;23820;-93
2023/12/25 03:36:55;;;;;;;2.00;0.40;;;;;;;10.38;100.00;97450.30;269779;1268;22619;-91
2023/12/25 03:43:00;;;;;;;1.10;0.50;;;;;;;10.44;100.00;97438.35;269997;1268;25490;-92
2023/12/25 03:49:02;;;;;;;0.60;0.30;;;;;;;10.43;100.00;97433.13;271690;1269;23633;-93
2023/12/25 03:55:08;;;;;;;0.40;0.20;;;;;;;10.45;100.00;97446.23;269897;1269;22560;-91
2023/12/25 04:01:13;;;;;;;0.50;0.40;;;;;;;10.45;100.00;97451.70;270185;1268;23703;-91
2023/12/25 04:07:19;;;;;;;0.50;0.30;;;;;;;10.44;100.00;97463.14;270060;1268;22532;-92
2023/12/25 04:13:25;;;;;;;0.40;0.20;;;;;;;10.40;100.00;97468.80;269778;1268;22526;-92
2023/12/25 04:19:28;;;;;;;1.10;0.30;;;;;;;10.43;100.00;97467.91;269882;1268;23348;-92
2023/12/25 04:25:33;;;;;;;0.40;0.30;;;;;;;10.49;100.00;97469.70;270070;1268;22752;-93
2023/12/25 04:31:37;;;;;;;0.10;0.10;;;;;;;10.52;100.00;97483.42;269785;1268;22504;-92
2023/12/25 04:37:43;;;;;;;0.30;0.20;;;;;;;10.57;100.00;97493.91;269639;1253;22550;-91
2023/12/25 04:43:45;;;;;;;1.60;0.20;;;;;;;10.60;100.00;97498.16;270057;1267;23860;-91
2023/12/25 04:49:54;;;;;;;0.30;0.20;;;;;;;10.54;100.00;97516.61;270725;1269;22503;-90
2023/12/25 04:55:58;;;;;;;0.60;0.20;;;;;;;10.52;100.00;97527.90;270735;1268;23325;-94
2023/12/25 05:02:07;;;;;;;0.40;0.10;;;;;;;10.55;100.00;97537.02;272094;1269;22555;-91
2023/12/25 05:08:11;;;;;;;0.20;0.20;;;;;;;10.47;100.00;97544.22;270467;1269;23122;-93
2023/12/25 05:14:14;;;;;;;1.30;0.20;;;;;;;10.45;100.00;97551.44;269823;1267;22571;-91
2023/12/25 05:20:17;;;;;;;1.40;0.70;;;;;;;10.47;100.00;97555.71;270019;1268;22619;-92
2023/12/25 05:26:21;;;;;;;3.20;0.60;;;;;;;10.45;100.00;97571.37;269975;1268;24411;-92
2023/12/25 05:32:26;;;;;;;0.90;0.40;;;;;;;10.45;100.00;97581.67;271638;1268;22555;-92
2023/12/25 05:38:28;;;;;;;1.90;0.30;;;;;;;10.44;100.00;97598.27;269906;1268;22593;-92
2023/12/25 05:44:31;;;;;;;0.70;0.30;;;;;;;10.33;100.00;97609.24;269856;1268;23788;-91
2023/12/25 05:50:33;;;;;;;0.20;0.20;;;;;;;10.24;100.00;97614.27;270093;1268;23314;-91
2023/12/25 05:56:58;;;;;;;0.30;0.10;;;;;;;10.11;100.00;97609.30;270014;1271;22651;-92
2023/12/25 06:03:09;;;;;;;0.90;0.30;;;;;;;10.05;100.00;97602.92;270197;1269;22613;-91
2023/12/25 06:09:12;;;;;;;1.70;0.50;;;;;;;9.93;100.00;97598.34;270212;1266;22503;-91
2023/12/25 06:15:14;;;;;;;4.80;0.70;;;;;;;9.81;100.00;97595.55;272107;1268;22511;-91
2023/12/25 06:21:17;;;;;;;1.80;0.20;;;;;;;9.94;100.00;97590.36;269709;1268;23705;-93
2023/12/25 06:27:21;;;;;;;1.30;0.40;;;;;;;10.08;100.00;97592.60;269766;1268;23398;-91
2023/12/25 06:33:28;;;;;;;0.30;0.30;;;;;;;10.16;100.00;97602.23;270043;1268;22576;-92
2023/12/25 06:39:37;;;;;;;0.90;0.40;;;;;;;10.20;100.00;97597.03;270053;1268;22540;-93
2023/12/25 06:45:41;;;;;;;2.80;0.40;;;;;;;10.32;100.00;97602.77;270117;1268;23469;-93
2023/12/25 06:51:45;;;;;;;1.00;0.30;;;;;;;10.37;100.00;97596.31;269665;1268;25435;-92
2023/12/25 06:57:47;;;;;;;1.50;0.30;;;;;;;10.41;100.00;97592.98;270019;1268;22629;-92
2023/12/25 07:03:52;;;;;;;0.60;0.30;;;;;;;10.47;100.00;97609.10;270251;1268;23428;-91
2023/12/25 07:09:56;;;;;;;0.60;0.40;;;;;;;10.50;100.00;97628.37;270192;1260;22564;-91
2023/12/25 07:15:58;;;;;;;0.40;0.30;;;;;;;10.48;100.00;97634.41;270376;1268;22547;-91
2023/12/25 07:22:02;;;;;;;1.40;0.40;;;;;;;10.49;100.00;97638.48;270032;1268;26529;-90
2023/12/25 07:28:08;;;;;;;1.20;0.40;;;;;;;10.54;100.00;97641.09;270154;1268;22995;-91
2023/12/25 07:34:10;;;;;;;1.70;0.40;;;;;;;10.52;100.00;97644.30;270566;1268;22532;-91
2023/12/25 07:40:14;;;;;;;1.80;0.30;;;;;;;10.57;100.00;97650.58;270552;1268;23250;-94
2023/12/25 07:46:18;;;;;;;1.20;0.30;;;;;;;10.63;99.59;97645.52;270784;1268;22602;-90
2023/12/25 07:52:23;;;;;;;0.50;0.30;;;;;;;10.79;99.41;97654.73;270421;1269;23869;-92
2023/12/25 07:58:28;;;;;;;0.30;0.20;;;;;;;10.86;98.09;97660.59;271291;1266;22971;-91
2023/12/25 08:04:31;;;;;;;2.10;0.50;;;;;;;10.90;97.92;97667.58;270332;1268;25359;-90
2023/12/25 08:10:35;;;;;;;0.30;0.30;;;;;;;10.94;97.83;97661.68;270638;1268;22531;-90
2023/12/25 08:16:42;;;;;;;0.50;0.40;;;;;;;11.02;96.64;97642.64;270404;1268;23315;-91
2023/12/25 08:22:46;;;;;;;1.60;0.50;;;;;;;11.20;94.54;97634.67;270782;1267;22544;-92
2023/12/25 08:28:52;;;;;;;3.00;0.80;;;;;;;11.23;94.08;97634.63;270483;1269;22608;-92
2023/12/25 08:34:54;;;;;;;3.40;0.70;;;;;;;11.22;94.60;97647.55;270399;1267;24231;-91
2023/12/25 08:40:59;;;;;;;1.20;0.70;;;;;;;11.27;93.95;97656.97;270059;1268;22580;-90
2023/12/25 08:47:03;;;;;;;1.30;0.70;;;;;;;11.32;94.01;97662.61;270094;1269;22556;-90
2023/12/25 08:53:08;;;;;;;1.10;0.60;;;;;;;11.37;94.37;97678.75;270068;1268;23698;-92
2023/12/25 08:59:11;;;;;;;2.90;0.60;;;;;;;11.43;94.09;97689.79;270934;1268;22606;-92
2023/12/25 09:05:14;;;;;;;2.10;1.00;;;;;;;11.43;94.21;97698.00;270275;1268;22571;-92
2023/12/25 09:11:19;;;;;;;2.20;1.00;;;;;;;11.37;94.21;97703.95;270251;1268;22533;-91
2023/12/25 09:17:21;;;;;;;2.40;0.80;;;;;;;11.33;93.51;97695.48;272480;1268;25408;-91
2023/12/25 09:23:29;;;;;;;1.70;0.80;;;;;;;11.32;93.34;97701.84;270350;1269;23173;-92
2023/12/25 09:29:38;;;;;;;2.50;1.20;;;;;;;11.32;93.34;97693.69;270295;1268;25492;-92
2023/12/25 09:35:42;;;;;;;1.80;0.70;;;;;;;11.33;93.73;97700.48;269713;1269;22564;-93
2023/12/25 09:41:48;;;;;;;1.00;0.60;;;;;;;11.37;93.10;97699.41;270081;1267;22599;-92
2023/12/25 09:48:09;;;;;;;1.90;1.00;;;;;;;11.45;92.33;97698.98;270278;1269;27308;-91
2023/12/25 09:54:15;;;;;;;1.00;0.50;;;;;;;11.49;92.60;97685.23;269910;1267;25343;-92
2023/12/25 10:00:43;;;;;;;1.50;0.60;;;;;;;11.47;93.03;97691.45;269938;1269;22562;-92
2023/12/25 10:06:48;;;;;;;0.90;0.40;;;;;;;11.43;93.18;97700.74;270001;1268;22550;-93
2023/12/25 10:12:50;;;;;;;0.70;0.50;;;;;;;11.45;92.93;97690.47;269860;1269;23324;-91
2023/12/25 10:18:55;;;;;;;1.40;0.50;;;;;;;11.51;92.76;97695.02;270155;1268;23517;-91
2023/12/25 10:25:06;;;;;;;0.60;0.60;;;;;;;11.51;92.87;97698.91;270138;1266;22550;-92
2023/12/25 10:31:12;;;;;;;1.20;0.50;;;;;;;11.53;92.63;97693.56;271239;1269;22527;-91
2023/12/25 10:37:15;;;;;;;1.70;0.70;;;;;;;11.57;91.94;97695.77;269873;1269;24011;-92
2023/12/25 10:43:19;;;;;;;1.20;0.50;;;;;;;11.60;91.57;97701.61;269891;1269;22720;-92
2023/12/25 10:49:22;;;;;;;1.30;0.60;;;;;;;11.57;91.87;97707.13;270040;1269;22617;-92
2023/12/25 10:55:41;;;;;;;1.30;0.40;;;;;;;11.51;91.89;97699.70;270138;1269;22539;-93
2023/12/25 11:01:48;;;;;;;0.80;0.40;;;;;;;11.50;91.59;97703.86;270105;1267;22529;-93
2023/12/25 11:07:50;;;;;;;1.40;0.60;;;;;;;11.56;91.24;97708.33;269783;1269;22545;-93
2023/12/25 11:13:57;;;;;;;1.50;0.80;;;;;;;11.64;91.67;97705.27;269731;1274;25021;-92
2023/12/25 11:20:04;;;;;;;1.90;0.80;;;;;;;11.67;90.93;97697.16;270002;1268;22755;-92
2023/12/25 11:26:10;;;;;;;2.50;0.60;;;;;;;11.63;90.43;97705.89;271223;1268;22548;-93
2023/12/25 11:32:13;;;;;;;1.50;0.50;;;;;;;11.58;90.31;97707.83;270025;1269;22541;-91
2023/12/25 11:38:18;;;;;;;1.70;0.70;;;;;;;11.55;90.19;97705.67;270151;1268;24407;-93
2023/12/25 11:44:46;;;;;;;2.90;0.80;;;;;;;11.53;90.58;97704.20;270321;1266;22558;-92
2023/12/25 11:51:00;;;;;;;0.80;0.70;;;;;;;11.51;90.38;97690.77;270697;1270;23187;-91
2023/12/25 11:57:19;;;;;;;1.10;0.60;;;;;;;11.53;90.60;97701.79;270380;1268;22555;-92
2023/12/25 12:03:23;;;;;;;1.50;0.70;;;;;;;11.58;90.07;97707.68;270547;1268;22616;-92
2023/12/25 12:10:23;;;;;;;;;;;;;;;;;;;;;
2023/12/25 12:16:28;;;;;;;1.10;0.50;;;;;;;11.61;89.75;97723.86;271002;1268;22714;-91
2023/12/25 12:22:31;;;;;;;1.60;0.60;;;;;;;11.66;89.28;97724.20;271130;1270;22528;-90
2023/12/25 12:28:43;;;;;;;0.90;0.50;;;;;;;11.70;88.91;97730.02;270316;1268;23326;-92
2023/12/25 12:34:47;;;;;;;1.20;0.60;;;;;;;11.74;88.68;97733.96;270110;1253;22541;-93
2023/12/25 12:40:49;;;;;;;0.70;0.50;;;;;;;11.79;88.07;97733.41;270088;1268;22632;-91
2023/12/25 12:46:53;;;;;;;1.40;0.40;;;;;;;11.80;87.83;97746.48;270097;1268;23470;-91
2023/12/25 12:52:58;;;;;;;3.00;0.70;;;;;;;11.81;87.22;97750.31;270059;1273;22541;-91
2023/12/25 12:59:01;;;;;;;1.10;0.70;;;;;;;11.82;87.32;97750.21;269956;1253;25265;-91
2023/12/25 13:05:07;;;;;;;4.00;0.80;;;;;;;11.83;87.21;97765.41;269896;1269;22568;-92
2023/12/25 13:11:12;;;;;;;1.20;0.80;;;;;;;11.82;87.07;97768.64;270937;1273;22554;-93
2023/12/25 13:17:14;;;;;;;1.60;0.80;;;;;;;11.78;87.01;97765.01;270962;1268;22565;-90
2023/12/25 13:23:17;;;;;;;0.90;0.50;;;;;;;11.73;87.13;97775.88;270560;1270;22486;-89
2023/12/25 13:29:19;;;;;;;1.70;0.60;;;;;;;11.70;86.59;97790.55;269754;1269;22546;-90
2023/12/25 13:35:21;;;;;;;1.90;0.80;;;;;;;11.66;86.52;97802.05;269682;1269;22554;-91
2023/12/25 13:41:25;;;;;;;4.10;1.80;;;;;;;11.58;86.82;97848.02;269685;1269;25496;-91
2023/12/25 13:47:27;;;;;;;4.40;1.50;;;;;;;11.44;87.38;97868.20;269813;1269;22657;-90
2023/12/25 13:53:33;;;;;;;2.70;1.30;;;;;;;11.31;87.83;97889.55;269584;1271;22550;-90
2023/12/25 13:59:35;;;;;;;3.80;1.60;;;;;;;11.21;88.12;97883.14;270365;1273;22624;-91
2023/12/25 14:05:37;;;;;;;3.90;1.90;;;;;;;11.08;88.42;97879.48;270955;1268;23305;-92
2023/12/25 14:11:39;;;;;;;2.90;1.50;;;;;;;11.00;88.82;97867.89;269937;1268;22583;-92
2023/12/25 14:17:44;;;;;;;4.60;1.80;;;;;;;10.96;88.94;97865.28;269432;1268;24240;-91
2023/12/25 14:23:48;;;;;;;2.80;1.30;;;;;;;10.96;88.99;97873.96;269166;1270;22622;-92
2023/12/25 14:29:50;;;;;;;2.70;1.20;;;;;;;10.97;88.91;97865.73;269277;1267;23007;-91
2023/12/25 14:35:52;;;;;;;2.60;1.10;;;;;;;10.98;88.57;97856.04;269465;1268;22570;-91
2023/12/25 14:41:55;;;;;;;3.60;1.60;;;;;;;10.98;88.90;97865.66;269567;1268;23907;-91
2023/12/25 14:47:58;;;;;;;4.10;1.80;;;;;;;10.96;89.25;97879.84;270122;1269;22560;-91
2023/12/25 14:54:03;;;;;;;2.80;0.80;;;;;;;10.79;90.17;97887.02;269671;1271;22548;-91
2023/12/25 15:00:09;;;;;;;2.60;1.20;;;;;;;10.56;90.95;97889.59;269833;1270;22535;-92
2023/12/25 15:06:13;;;;;;;3.20;1.40;;;;;;;10.41;91.70;97893.98;273222;1271;22586;-91
2023/12/25 15:12:15;;;;;;;2.20;1.20;;;;;;;10.31;92.30;97905.91;270617;1268;328694;-93
2023/12/25 15:18:17;;;;;;;3.40;1.80;;;;;;;10.19;93.12;97926.69;271187;1273;22601;-90
2023/12/25 15:24:19;;;;;;;4.40;2.40;;;;;;;10.08;93.93;97932.66;270447;1270;23657;-91
2023/12/25 15:30:22;;;;;;;4.60;1.70;;;;;;;9.96;94.68;97941.52;270549;1271;23980;-91
2023/12/25 15:36:25;;;;;;;3.20;1.80;;;;;;;9.93;95.22;97942.61;270728;1269;23295;-91
2023/12/25 15:42:34;;;;;;;5.80;1.40;;;;;;;10.04;95.47;97949.06;273739;1270;22566;-91
2023/12/25 15:48:38;;;;;;;4.00;1.90;;;;;;;10.07;95.72;97961.17;270585;1270;22842;-92
2023/12/25 15:54:41;;;;;;;4.70;1.70;;;;;;;10.12;95.78;97966.33;270419;1270;22564;-93
2023/12/25 16:00:45;;;;;;;3.00;1.20;;;;;;;10.17;95.85;97965.77;270441;1269;23332;-91
2023/12/25 16:06:48;;;;;;;2.70;1.20;;;;;;;10.19;96.11;97975.14;270156;1267;24043;-91
2023/12/25 16:12:52;;;;;;;4.40;1.80;;;;;;;10.24;96.14;97981.30;270314;1270;23298;-91
2023/12/25 16:18:55;;;;;;;4.40;1.60;;;;;;;10.27;96.26;97991.43;270366;1267;22337;-91
2023/12/25 16:24:59;;;;;;;3.40;1.60;;;;;;;10.25;96.55;97999.33;269947;1266;22557;-91
2023/12/25 16:31:17;;;;;;;5.60;2.30;;;;;;;10.24;96.73;98012.07;270060;1269;24209;-91
2023/12/25 16:37:21;;;;;;;7.90;3.30;;;;;;;10.17;97.28;98032.33;269843;1270;22609;-91
2023/12/25 16:43:26;;;;;;;5.90;2.80;;;;;;;10.04;97.85;98048.27;270010;1269;24374;-90
2023/12/25 16:49:31;;;;;;;6.30;2.70;;;;;;;9.95;98.42;98072.81;270099;1263;22536;-90
2023/12/25 16:55:36;;;;;;;5.90;3.00;;;;;;;9.79;99.32;98106.02;269692;1270;23578;-93
2023/12/25 17:01:40;;;;;;;6.00;2.40;;;;;;;9.58;99.96;98108.11;269890;1269;22545;-91
2023/12/25 17:07:44;;;;;;;5.60;2.70;;;;;;;9.40;100.00;98109.81;269809;1269;22564;-91
2023/12/25 17:13:46;;;;;;;6.00;2.90;;;;;;;9.26;100.00;98117.43;270073;1270;23307;-91
2023/12/25 17:19:51;;;;;;;5.10;2.80;;;;;;;9.15;100.00;98122.09;270050;1267;22537;-90
2023/12/25 17:25:57;;;;;;;8.50;3.20;;;;;;;9.08;100.00;98128.23;270699;1269;22537;-93
2023/12/25 17:32:01;;;;;;;6.70;3.40;;;;;;;9.03;100.00;98153.48;270633;1268;22545;-92
2023/12/25 17:38:05;;;;;;;7.00;3.20;;;;;;;8.97;100.00;98161.48;271021;1267;22564;-91
2023/12/25 17:44:11;;;;;;;5.90;3.00;;;;;;;8.91;100.00;98165.69;270678;1261;22608;-93
2023/12/25 17:50:23;;;;;;;7.10;3.10;;;;;;;8.85;100.00;98173.07;263597;1268;10001993;-93
2023/12/25 17:56:31;;;;;;;7.50;4.10;;;;;;;8.82;100.00;98180.60;271859;1267;22569;-92
2023/12/25 18:02:35;;;;;;;6.40;3.20;;;;;;;8.78;100.00;98192.83;272187;1270;24409;-92
2023/12/25 18:08:40;;;;;;;6.30;2.90;;;;;;;8.76;100.00;98189.32;271926;1267;22534;-92
2023/12/25 18:14:44;;;;;;;7.30;2.80;;;;;;;8.73;100.00;98196.70;271894;1269;23269;-92
2023/12/25 18:20:53;;;;;;;7.50;2.90;;;;;;;8.71;100.00;98201.05;271617;1273;23733;-93
2023/12/25 18:26:58;;;;;;;4.70;2.70;;;;;;;8.69;100.00;98205.48;271674;1268;27764;-91
2023/12/25 18:33:02;;;;;;;6.60;2.90;;;;;;;8.67;100.00;98216.78;271637;1270;23023;-93
2023/12/25 18:39:06;;;;;;;6.60;3.20;;;;;;;8.65;100.00;98229.80;272024;1268;22548;-93
2023/12/25 18:45:11;;;;;;;7.20;3.30;;;;;;;8.64;100.00;98227.14;271983;1267;22621;-92
2023/12/25 18:51:13;;;;;;;7.60;3.60;;;;;;;8.61;100.00;98225.48;271562;1269;23304;-92
2023/12/25 18:57:21;;;;;;;8.10;4.10;;;;;;;8.57;100.00;98226.85;271544;1269;22508;-93
2023/12/25 19:03:29;;;;;;;8.50;4.50;;;;;;;8.52;100.00;98211.69;271383;1270;25745;-93
2023/12/25 19:09:41;;;;;;;10.40;5.00;;;;;;;8.46;100.00;98219.13;271614;1267;23094;-92
2023/12/25 19:15:48;;;;;;;8.40;5.30;;;;;;;8.43;100.00;98234.94;271307;1273;22591;-94
2023/12/25 19:22:03;;;;;;;9.40;4.80;;;;;;;8.41;100.00;98238.73;271288;1269;22531;-94
2023/12/25 19:28:13;;;;;;;10.60;5.00;;;;;;;8.39;100.00;98252.27;271206;1270;24302;-92
2023/12/25 19:34:30;;;;;;;9.70;4.50;;;;;;;8.38;100.00;98260.30;271518;1268;22570;-92
2023/12/25 19:41:02;;;;;;;6.80;3.90;;;;;;;8.40;100.00;98263.19;263633;1302;545780;-94
2023/12/25 19:47:08;;;;;;;6.70;3.10;;;;;;;8.42;100.00;98275.29;269239;1282;22570;-93
2023/12/25 19:53:13;;;;;;;7.40;2.20;;;;;;;8.46;100.00;98271.34;266217;1271;5435935;-92
2023/12/25 19:59:25;;;;;;;2.10;1.10;;;;;;;8.44;100.00;98276.40;270502;1272;23405;-93
2023/12/25 20:05:59;;;;;;;3.20;1.00;;;;;;;8.43;100.00;98280.36;270719;1274;22262;-93
2023/12/25 20:12:06;;;;;;;2.00;1.00;;;;;;;8.40;100.00;98287.02;270501;1271;22213;-93
2023/12/25 20:18:26;;;;;;;3.60;1.10;;;;;;;8.35;100.00;98293.15;270678;1274;23663;-94
2023/12/25 20:24:40;;;;;;;1.90;0.70;;;;;;;8.29;100.00;98292.02;270610;1272;24313;-93
2023/12/25 20:31:15;;;;;;;3.20;1.30;;;;;;;8.23;100.00;98289.22;270583;1272;22510;-95
2023/12/25 20:37:30;;;;;;;3.40;1.20;;;;;;;8.19;100.00;98295.93;270176;1273;23482;-93
2023/12/25 20:43:36;;;;;;;6.20;2.60;;;;;;;8.15;100.00;98296.29;270551;1273;22512;-93
2023/12/25 20:49:43;;;;;;;3.60;2.00;;;;;;;8.13;100.00;98299.61;270656;1272;23039;-93
2023/12/25 20:55:53;;;;;;;3.70;1.30;;;;;;;8.10;100.00;98301.78;272957;1272;23212;-92
2023/12/25 21:01:58;;;;;;;2.20;1.30;;;;;;;8.07;100.00;98295.34;272904;1272;22351;-93
2023/12/25 21:08:57;;;;;;;;;;;;;;;;;;;;;
2023/12/25 21:17:02;;;;;;;;;;;;;;;;;;;;;
2023/12/25 21:32:04;;;;;;;;;;;;;;;;;;;;;
2023/12/25 21:39:02;;;;;;;6.70;3.20;;;;;;;7.70;100.00;98288.35;268963;1290;23764;-94
2023/12/25 21:47:09;;;;;;;;;;;;;;;;;;;;;
2023/12/25 21:54:03;;;;;;;8.90;6.10;;;;;;;7.52;100.00;98299.65;270676;1273;24550;-91
2023/12/25 22:00:20;;;;;;;11.50;7.70;;;;;;;7.44;100.00;98295.27;271856;1273;25115;-92
2023/12/25 22:07:06;;;;;;;8.90;7.00;;;;;;;7.39;100.00;98283.63;269822;1274;22725;-92
2023/12/25 22:13:08;;;;;;;11.90;7.60;;;;;;;7.39;100.00;98291.80;271806;1275;23572;-93
2023/12/25 22:19:11;;;;;;;10.50;7.40;;;;;;;7.41;100.00;98293.14;272508;1270;22553;-91
2023/12/25 22:25:17;;;;;;;13.10;7.70;;;;;;;7.42;100.00;98300.62;270961;1270;22266;-92
2023/12/25 22:31:20;;;;;;;10.10;7.50;;;;;;;7.44;100.00;98312.23;273071;1270;23506;-94
2023/12/25 22:37:31;;;;;;;10.20;8.00;;;;;;;7.40;100.00;98314.70;272476;1276;22570;-92
2023/12/25 22:43:34;;;;;;;12.10;8.60;;;;;;;7.34;100.00;98304.02;271113;1275;22557;-93
2023/12/25 22:49:37;;;;;;;10.40;8.20;;;;;;;7.33;100.00;98300.74;270430;1275;23187;-92
2023/12/25 22:55:39;;;;;;;11.30;8.60;;;;;;;7.32;100.00;98292.17;269896;1270;22435;-92
2023/12/25 23:02:06;;;;;;;14.50;9.70;;;;;;;7.33;100.00;98298.88;269903;1271;22308;-93
2023/12/25 23:08:09;;;;;;;12.50;9.70;;;;;;;7.32;100.00;98302.92;271470;1272;22645;-92
2023/12/25 23:14:25;;;;;;;14.60;11.30;;;;;;;7.31;100.00;98310.84;270681;1269;22180;-92
2023/12/25 23:20:32;;;;;;;14.60;10.70;;;;;;;7.32;100.00;98306.18;271915;1272;22308;-92
2023/12/25 23:26:41;;;;;;;14.50;10.70;;;;;;;7.34;100.00;98306.60;272364;1270;22118;-93
2023/12/25 23:32:46;;;;;;;16.60;12.40;;;;;;;7.36;100.00;98306.16;269777;1272;23307;-93
2023/12/25 23:38:48;;;;;;;16.60;11.40;;;;;;;7.39;100.00;98306.11;270620;1275;22578;-92
2023/12/25 23:44:50;;;;;;;16.00;10.20;;;;;;;7.40;100.00;98313.29;269819;1269;23424;-92
2023/12/25 23:50:55;;;;;;;13.40;10.10;;;;;;;7.39;100.00;98308.27;271071;1270;23238;-92
2023/12/25 23:56:57;;;;;;;13.80;8.20;;;;;;;7.38;100.00;98308.84;272094;1275;22394;-92
